createdAt,value
2018-07-30T00:03:11.604Z,62.10
2018-07-30T00:05:41.757Z,62.20
2018-07-30T00:10:38.891Z,62.40
2018-07-30T00:13:07.712Z,62.40
2018-07-30T00:15:36.952Z,62.70
2018-07-30T00:18:06.246Z,62.70
2018-07-30T00:20:34.963Z,62.70
2018-07-30T00:25:37.488Z,62.80
2018-07-30T00:30:36.137Z,62.90
2018-07-30T00:33:09.459Z,62.90
2018-07-30T00:35:38.203Z,63.00
2018-07-30T00:38:07.718Z,62.90
2018-07-30T00:40:36.373Z,63.10
2018-07-30T00:43:05.682Z,63.20
2018-07-30T00:45:34.449Z,63.20
2018-07-30T00:48:05.205Z,63.20
2018-07-30T00:50:33.928Z,63.20
2018-07-30T00:53:02.636Z,63.40
2018-07-30T00:55:32.632Z,63.50
2018-07-30T00:58:01.340Z,63.40
2018-07-30T01:00:30.006Z,64.20
2018-07-30T01:02:58.680Z,63.30
2018-07-30T01:05:31.209Z,63.40
2018-07-30T01:07:59.919Z,63.60
2018-07-30T01:12:56.854Z,63.50
2018-07-30T01:15:27.096Z,63.50
2018-07-30T01:17:56.512Z,63.60
2018-07-30T01:22:55.624Z,63.70
2018-07-30T01:25:24.844Z,63.80
2018-07-30T01:27:54.097Z,63.90
2018-07-30T01:30:22.883Z,64.00
2018-07-30T01:32:51.562Z,64.20
2018-07-30T01:35:20.307Z,64.20
2018-07-30T01:37:48.993Z,64.20
2018-07-30T01:40:17.812Z,64.40
2018-07-30T01:42:46.505Z,64.50
2018-07-30T01:45:15.844Z,64.60
2018-07-30T01:50:13.507Z,64.70
2018-07-30T01:52:42.216Z,64.70
2018-07-30T01:55:10.901Z,64.70
2018-07-30T01:57:39.628Z,64.70
2018-07-30T02:00:09.386Z,64.70
2018-07-30T02:02:43.043Z,64.60
2018-07-30T02:05:11.984Z,64.60
2018-07-30T02:07:41.755Z,64.70
2018-07-30T02:10:12.026Z,65.40
2018-07-30T02:12:46.302Z,66.20
2018-07-30T02:15:17.275Z,66.50
2018-07-30T02:17:47.355Z,67.20
2018-07-30T02:20:17.321Z,68.10
2018-07-30T02:25:15.336Z,69.50
2018-07-30T02:27:44.836Z,69.30
2018-07-30T02:30:14.474Z,69.30
2018-07-30T02:32:43.396Z,69.70
2018-07-30T02:35:12.363Z,69.50
2018-07-30T02:37:41.414Z,70.00
2018-07-30T02:42:39.208Z,70.50
2018-07-30T02:45:09.077Z,70.70
2018-07-30T02:47:38.045Z,70.80
2018-07-30T02:50:08.267Z,70.70
2018-07-30T02:52:37.028Z,70.50
2018-07-30T02:55:07.153Z,70.20
2018-07-30T02:57:37.698Z,70.00
2018-07-30T03:00:08.518Z,69.60
2018-07-30T03:02:37.372Z,69.30
2018-07-30T03:05:06.808Z,69.20
2018-07-30T03:07:40.089Z,68.80
2018-07-30T03:12:37.709Z,69.30
2018-07-30T03:15:06.693Z,70.10
2018-07-30T03:17:36.260Z,70.10
2018-07-30T03:20:05.615Z,70.30
2018-07-30T03:22:35.892Z,70.40
2018-07-30T03:27:34.944Z,70.60
2018-07-30T03:30:05.559Z,70.70
2018-07-30T03:32:34.565Z,70.60
2018-07-30T03:35:04.715Z,70.60
2018-07-30T03:37:34.062Z,70.50
2018-07-30T03:42:31.241Z,70.40
2018-07-30T03:44:59.899Z,70.10
2018-07-30T03:47:28.910Z,70.20
2018-07-30T03:52:27.588Z,70.00
2018-07-30T03:54:56.234Z,69.90
2018-07-30T03:57:25.601Z,69.60
2018-07-30T04:02:22.637Z,69.80
2018-07-30T04:04:51.344Z,70.20
2018-07-30T04:09:48.476Z,70.40
2018-07-30T04:12:17.783Z,70.50
2018-07-30T04:14:46.424Z,70.60
2018-07-30T04:19:44.645Z,70.60
2018-07-30T04:22:13.484Z,71.10
2018-07-30T04:24:42.056Z,72.30
2018-07-30T04:27:10.862Z,72.00
2018-07-30T04:32:08.249Z,71.90
2018-07-30T04:34:37.064Z,71.60
2018-07-30T04:37:06.581Z,71.50
2018-07-30T04:39:35.910Z,71.20
2018-07-30T04:42:04.700Z,70.70
2018-07-30T04:44:33.401Z,70.50
2018-07-30T04:47:02.920Z,69.70
2018-07-30T04:52:02.185Z,68.40
2018-07-30T04:54:31.590Z,68.60
2018-07-30T04:57:01.016Z,68.40
2018-07-30T04:59:30.109Z,67.90
2018-07-30T05:02:00.050Z,67.50
2018-07-30T05:06:57.088Z,67.70
2018-07-30T05:09:27.208Z,67.50
2018-07-30T05:11:57.580Z,67.60
2018-07-30T05:14:26.777Z,67.60
2018-07-30T05:19:25.768Z,68.00
2018-07-30T05:21:54.440Z,67.40
2018-07-30T05:24:24.404Z,67.90
2018-07-30T05:26:53.387Z,68.00
2018-07-30T05:29:22.896Z,67.60
2018-07-30T05:31:51.689Z,67.10
2018-07-30T05:34:21.299Z,66.70
2018-07-30T05:36:49.995Z,66.80
2018-07-30T05:39:18.679Z,66.40
2018-07-30T05:41:47.472Z,66.30
2018-07-30T05:44:17.539Z,65.90
2018-07-30T05:46:46.290Z,65.60
2018-07-30T05:49:19.368Z,65.40
2018-07-30T05:51:48.068Z,65.20
2018-07-30T05:54:17.348Z,64.70
2018-07-30T05:56:47.068Z,64.30
2018-07-30T05:59:16.537Z,65.00
2018-07-30T06:01:45.392Z,65.40
2018-07-30T06:04:16.033Z,65.30
2018-07-30T06:06:46.467Z,65.90
2018-07-30T06:09:20.456Z,66.60
2018-07-30T06:11:49.115Z,66.40
2018-07-30T06:14:17.943Z,65.90
2018-07-30T06:16:47.817Z,65.70
2018-07-30T06:19:18.236Z,65.40
2018-07-30T06:21:48.281Z,65.20
2018-07-30T06:24:21.373Z,66.30
2018-07-30T06:26:52.247Z,66.40
2018-07-30T06:29:21.680Z,66.30
2018-07-30T06:31:52.513Z,66.50
2018-07-30T06:34:22.192Z,65.80
2018-07-30T06:36:52.248Z,65.80
2018-07-30T06:39:22.477Z,66.00
2018-07-30T06:41:51.497Z,65.90
2018-07-30T06:44:21.331Z,65.10
2018-07-30T06:46:54.370Z,65.70
2018-07-30T06:49:23.109Z,65.60
2018-07-30T06:51:51.814Z,64.90
2018-07-30T06:54:22.478Z,64.20
2018-07-30T06:59:25.056Z,63.90
2018-07-30T07:04:29.476Z,63.30
2018-07-30T07:06:59.740Z,62.50
2018-07-30T07:09:29.954Z,62.10
2018-07-30T07:12:00.636Z,62.40
2018-07-30T07:14:29.327Z,61.40
2018-07-30T07:16:58.055Z,61.90
2018-07-30T07:19:27.028Z,62.10
2018-07-30T07:21:55.812Z,61.60
2018-07-30T07:24:24.577Z,61.30
2018-07-30T07:26:53.378Z,60.60
2018-07-30T07:29:22.152Z,61.50
2018-07-30T07:31:50.959Z,61.70
2018-07-30T07:34:19.645Z,61.50
2018-07-30T07:36:48.326Z,61.80
2018-07-30T07:39:21.493Z,62.10
2018-07-30T07:41:50.182Z,62.50
2018-07-30T07:44:18.881Z,62.50
2018-07-30T07:46:47.676Z,62.50
2018-07-30T07:49:20.998Z,62.50
2018-07-30T07:51:49.766Z,62.70
2018-07-30T07:54:18.426Z,62.30
2018-07-30T07:56:47.166Z,62.30
2018-07-30T07:59:17.212Z,62.40
2018-07-30T08:01:45.980Z,62.40
2018-07-30T08:04:14.674Z,62.40
2018-07-30T08:06:43.464Z,63.30
2018-07-30T08:09:12.632Z,62.50
2018-07-30T08:11:41.345Z,63.10
2018-07-30T08:16:39.030Z,62.90
2018-07-30T08:24:04.464Z,63.40
2018-07-30T08:29:01.673Z,63.60
2018-07-30T08:31:30.356Z,63.50
2018-07-30T08:33:59.027Z,63.20
2018-07-30T08:36:27.788Z,63.40
2018-07-30T08:38:56.580Z,63.80
2018-07-30T08:41:25.226Z,63.70
2018-07-30T08:43:53.979Z,63.60
2018-07-30T08:48:51.030Z,62.90
2018-07-30T08:53:48.075Z,62.80
2018-07-30T08:56:17.387Z,62.30
2018-07-30T08:58:45.986Z,62.50
2018-07-30T09:01:14.633Z,62.60
2018-07-30T09:03:43.340Z,62.70
2018-07-30T09:06:12.057Z,62.50
2018-07-30T09:08:40.753Z,62.10
2018-07-30T09:11:09.542Z,62.30
2018-07-30T09:13:38.206Z,61.90
2018-07-30T09:18:35.229Z,61.00
2018-07-30T09:21:04.046Z,60.00
2018-07-30T09:23:32.770Z,59.80
2018-07-30T09:26:02.130Z,59.80
2018-07-30T09:28:30.832Z,59.50
2018-07-30T09:30:59.557Z,59.70
2018-07-30T09:33:29.328Z,59.10
2018-07-30T09:35:58.017Z,58.40
2018-07-30T09:38:26.777Z,58.70
2018-07-30T09:40:55.500Z,58.50
2018-07-30T09:43:24.207Z,58.50
2018-07-30T09:45:53.290Z,58.10
2018-07-30T09:48:22.015Z,57.90
2018-07-30T09:50:50.690Z,57.20
2018-07-30T09:53:19.405Z,57.40
2018-07-30T09:55:48.133Z,57.20
2018-07-30T10:00:50.961Z,57.80
2018-07-30T10:03:19.735Z,58.00
2018-07-30T10:08:17.404Z,58.10
2018-07-30T10:13:14.434Z,57.40
2018-07-30T10:15:44.365Z,57.00
2018-07-30T10:18:13.033Z,56.90
2018-07-30T10:20:41.737Z,56.90
2018-07-30T10:23:10.563Z,57.10
2018-07-30T10:25:39.235Z,56.80
2018-07-30T10:28:08.108Z,57.10
2018-07-30T10:30:36.868Z,56.10
2018-07-30T10:33:05.593Z,57.20
2018-07-30T10:35:34.341Z,57.70
2018-07-30T10:38:03.075Z,58.40
2018-07-30T10:40:31.721Z,56.60
2018-07-30T10:43:00.452Z,56.50
2018-07-30T10:45:29.132Z,56.90
2018-07-30T10:47:57.778Z,54.00
2018-07-30T10:50:26.437Z,52.70
2018-07-30T10:52:55.116Z,52.90
2018-07-30T10:55:23.861Z,52.60
2018-07-30T10:57:52.560Z,52.30
2018-07-30T11:00:21.285Z,52.50
2018-07-30T11:02:50.072Z,52.20
2018-07-30T11:05:18.733Z,51.90
2018-07-30T11:07:47.407Z,52.10
2018-07-30T11:10:16.137Z,52.40
2018-07-30T11:12:44.793Z,52.30
2018-07-30T11:15:14.322Z,52.10
2018-07-30T11:17:42.995Z,51.60
2018-07-30T11:22:40.133Z,50.70
2018-07-30T11:25:08.879Z,49.00
2018-07-30T11:27:37.574Z,48.70
2018-07-30T11:30:06.467Z,47.40
2018-07-30T11:32:35.169Z,46.90
2018-07-30T11:35:03.884Z,46.80
2018-07-30T11:37:32.620Z,46.70
2018-07-30T11:40:01.292Z,46.60
2018-07-30T11:42:30.007Z,46.60
2018-07-30T11:44:58.657Z,47.10
2018-07-30T11:47:31.688Z,46.40
2018-07-30T11:50:00.337Z,46.00
2018-07-30T11:52:29.000Z,45.80
2018-07-30T11:55:06.037Z,46.20
2018-07-30T11:57:35.668Z,46.40
2018-07-30T12:00:08.113Z,45.30
2018-07-30T12:02:43.006Z,44.90
2018-07-30T12:05:11.750Z,42.50
2018-07-30T12:07:40.541Z,42.90
2018-07-30T12:10:09.311Z,43.20
2018-07-30T12:12:38.065Z,42.90
2018-07-30T12:17:35.144Z,41.90
2018-07-30T12:20:08.716Z,41.70
2018-07-30T12:56:06.074Z,39.70
2018-07-30T12:58:34.789Z,42.20
2018-07-30T13:01:03.500Z,40.50
2018-07-30T13:07:47.224Z,39.50
2018-07-30T13:10:16.672Z,39.10
2018-07-30T13:12:45.318Z,37.50
2018-07-30T13:15:14.035Z,37.50
2018-07-30T13:17:42.824Z,37.80
2018-07-30T13:20:11.608Z,37.90
2018-07-30T13:25:09.201Z,37.60
2018-07-30T13:30:07.506Z,37.50
2018-07-30T13:32:36.433Z,37.50
2018-07-30T13:35:05.450Z,37.10
2018-07-30T13:37:34.261Z,36.80
2018-07-30T13:40:02.944Z,37.10
2018-07-30T13:42:31.697Z,37.00
2018-07-30T13:45:00.933Z,37.20
2018-07-30T13:47:29.661Z,36.30
2018-07-30T13:49:59.050Z,36.70
2018-07-30T13:54:56.106Z,36.70
2018-07-30T13:57:24.801Z,36.70
2018-07-30T13:59:53.502Z,36.90
2018-07-30T14:04:50.537Z,36.40
2018-07-30T14:07:19.222Z,36.50
2018-07-30T14:09:47.972Z,37.00
2018-07-30T14:12:17.409Z,37.00
2018-07-30T14:14:46.069Z,37.00
2018-07-30T14:17:18.749Z,36.90
2018-07-30T14:19:47.440Z,37.10
2018-07-30T14:22:17.065Z,36.90
2018-07-30T14:24:46.759Z,36.20
2018-07-30T14:27:19.484Z,36.20
2018-07-30T14:32:17.457Z,36.30
2018-07-30T14:34:46.176Z,35.90
2018-07-30T14:37:18.818Z,36.10
2018-07-30T14:39:47.473Z,36.30
2018-07-30T14:42:16.873Z,36.80
2018-07-30T14:44:45.583Z,36.60
2018-07-30T14:47:14.518Z,36.20
2018-07-30T14:49:43.276Z,36.20
2018-07-30T14:52:12.040Z,35.70
2018-07-30T14:54:40.817Z,36.20
2018-07-30T14:57:09.524Z,36.30
2018-07-30T14:59:38.236Z,36.70
2018-07-30T15:02:06.905Z,36.10
2018-07-30T15:04:35.588Z,36.00
2018-07-30T15:07:04.316Z,36.00
2018-07-30T15:09:33.066Z,36.70
2018-07-30T15:12:01.826Z,36.50
2018-07-30T15:14:30.558Z,36.50
2018-07-30T15:16:59.224Z,36.40
2018-07-30T15:19:27.902Z,36.50
2018-07-30T15:21:56.608Z,36.70
2018-07-30T15:24:25.285Z,36.60
2018-07-30T15:26:54.010Z,36.60
2018-07-30T15:29:22.665Z,36.20
2018-07-30T15:31:51.344Z,36.30
2018-07-30T15:34:20.013Z,35.90
2018-07-30T15:36:48.766Z,36.30
2018-07-30T15:39:17.921Z,36.60
2018-07-30T15:41:46.617Z,36.60
2018-07-30T15:44:15.335Z,37.00
2018-07-30T15:46:44.031Z,37.40
2018-07-30T15:51:41.054Z,37.70
2018-07-30T15:54:10.558Z,38.40
2018-07-30T16:01:36.214Z,38.80
2018-07-30T16:04:04.938Z,38.90
2018-07-30T16:06:33.631Z,39.10
2018-07-30T16:09:02.849Z,42.10
2018-07-30T16:11:31.589Z,43.30
2018-07-30T16:16:28.800Z,43.90
2018-07-30T16:18:57.535Z,43.90
2018-07-30T16:21:26.171Z,44.50
2018-07-30T16:23:54.951Z,44.90
2018-07-30T16:26:24.064Z,45.60
2018-07-30T16:28:52.755Z,46.00
2018-07-30T16:31:21.430Z,46.40
2018-07-30T16:33:50.833Z,46.70
2018-07-30T16:36:19.539Z,46.60
2018-07-30T16:38:48.233Z,46.70
2018-07-30T16:41:17.574Z,47.10
2018-07-30T16:43:46.323Z,47.10
2018-07-30T16:46:15.348Z,46.80
2018-07-30T16:51:12.579Z,47.20
2018-07-30T16:53:41.441Z,47.50
2018-07-30T16:56:10.365Z,47.80
2018-07-30T16:58:39.109Z,47.00
2018-07-30T17:01:07.761Z,47.70
2018-07-30T17:03:36.588Z,48.00
2018-07-30T17:06:05.448Z,47.90
2018-07-30T17:08:34.189Z,47.90
2018-07-30T17:11:02.978Z,48.00
2018-07-30T17:13:31.684Z,48.40
2018-07-30T17:16:00.662Z,48.50
2018-07-30T17:18:29.405Z,48.40
2018-07-30T17:20:58.236Z,48.90
2018-07-30T17:23:26.921Z,48.70
2018-07-30T17:25:55.623Z,48.70
2018-07-30T17:28:24.428Z,48.70
2018-07-30T17:30:53.367Z,48.10
2018-07-30T17:33:22.172Z,48.20
2018-07-30T17:35:50.906Z,47.70
2018-07-30T17:38:19.615Z,48.10
2018-07-30T17:40:48.395Z,48.20
2018-07-30T17:43:18.113Z,48.80
2018-07-30T17:45:47.545Z,48.60
2018-07-30T17:48:17.467Z,48.60
2018-07-30T17:50:46.304Z,48.50
2018-07-30T17:53:19.220Z,48.90
2018-07-30T17:55:48.350Z,49.30
2018-07-30T17:58:18.095Z,49.50
2018-07-30T18:00:47.080Z,49.40
2018-07-30T18:03:16.294Z,49.50
2018-07-30T18:05:45.161Z,49.70
2018-07-30T18:08:13.995Z,49.80
2018-07-30T18:13:11.263Z,50.00
2018-07-30T18:15:42.301Z,49.80
2018-07-30T18:18:11.152Z,49.90
2018-07-30T18:20:39.969Z,50.20
2018-07-30T18:23:08.765Z,50.20
2018-07-30T18:25:37.525Z,50.40
2018-07-30T18:28:06.259Z,51.00
2018-07-30T18:30:34.989Z,51.10
2018-07-30T18:33:03.675Z,50.60
2018-07-30T18:35:32.437Z,50.70
2018-07-30T18:38:01.147Z,50.70
2018-07-30T18:40:29.914Z,50.50
2018-07-30T18:42:58.661Z,50.60
2018-07-30T18:45:27.425Z,52.10
2018-07-30T18:47:56.419Z,53.50
2018-07-30T18:50:25.118Z,54.00
2018-07-30T18:52:53.881Z,54.60
2018-07-30T18:55:22.631Z,54.80
2018-07-30T18:57:51.535Z,54.80
2018-07-30T19:02:48.599Z,53.40
2018-07-30T19:05:18.063Z,52.60
2018-07-30T19:07:46.732Z,52.40
2018-07-30T19:10:19.580Z,51.90
2018-07-30T19:12:48.560Z,51.60
2018-07-30T19:15:17.881Z,51.20
2018-07-30T19:17:46.602Z,50.90
2018-07-30T19:20:16.277Z,51.00
2018-07-30T19:22:45.232Z,50.90
2018-07-30T19:25:14.071Z,50.80
2018-07-30T19:27:42.834Z,50.80
2018-07-30T19:30:11.584Z,50.70
2018-07-30T19:32:40.583Z,50.70
2018-07-30T19:35:09.673Z,50.70
2018-07-30T19:37:38.614Z,50.70
2018-07-30T19:40:07.375Z,51.00
2018-07-30T19:42:36.157Z,52.00
2018-07-30T19:45:05.570Z,52.70
2018-07-30T19:47:34.354Z,53.70
2018-07-30T19:50:03.372Z,53.60
2018-07-30T19:52:32.356Z,54.00
2018-07-30T19:55:01.064Z,54.40
2018-07-30T19:57:30.210Z,54.70
2018-07-30T19:59:59.350Z,55.30
2018-07-30T20:02:28.128Z,55.70
2018-07-30T20:04:57.067Z,55.70
2018-07-30T20:07:26.129Z,56.00
2018-07-30T20:09:55.220Z,56.00
2018-07-30T20:14:52.390Z,55.80
2018-07-30T20:17:21.154Z,55.70
2018-07-30T20:19:50.096Z,55.30
2018-07-30T20:22:18.877Z,55.20
2018-07-30T20:24:47.905Z,55.10
2018-07-30T20:27:17.333Z,54.50
2018-07-30T20:29:46.292Z,55.20
2018-07-30T20:32:15.963Z,54.60
2018-07-30T20:34:44.693Z,54.90
2018-07-30T20:37:13.371Z,55.50
2018-07-30T20:39:42.057Z,55.70
2018-07-30T20:42:10.836Z,55.80
2018-07-30T20:44:39.576Z,56.00
2018-07-30T20:47:08.418Z,55.90
2018-07-30T20:49:37.187Z,55.80
2018-07-30T20:52:06.021Z,55.80
2018-07-30T20:54:34.679Z,55.90
2018-07-30T20:57:03.481Z,55.80
2018-07-30T20:59:32.147Z,55.90
2018-07-30T21:02:01.873Z,55.90
2018-07-30T21:04:30.653Z,55.80
2018-07-30T21:06:59.504Z,55.90
2018-07-30T21:09:28.176Z,56.10
2018-07-30T21:11:56.867Z,56.00
2018-07-30T21:14:25.533Z,55.90
2018-07-30T21:16:54.269Z,55.90
2018-07-30T21:19:22.992Z,55.80
2018-07-30T21:21:51.767Z,55.70
2018-07-30T21:24:20.508Z,55.60
2018-07-30T21:26:50.853Z,55.50
2018-07-30T21:31:48.968Z,55.50
2018-07-30T21:36:48.577Z,55.60
2018-07-30T21:39:18.004Z,55.90
2018-07-30T21:41:46.885Z,55.90
2018-07-30T21:44:16.577Z,56.00
2018-07-30T21:46:45.437Z,56.00
2018-07-30T21:49:16.260Z,55.90
2018-07-30T21:51:45.036Z,56.00
2018-07-30T21:54:13.820Z,56.10
2018-07-30T21:56:44.455Z,56.20
2018-07-30T21:59:13.191Z,56.40
2018-07-30T22:01:42.030Z,56.40
2018-07-30T22:04:10.818Z,56.60
2018-07-30T22:06:41.100Z,56.70
2018-07-30T22:09:13.338Z,56.90
2018-07-30T22:11:42.847Z,57.00
2018-07-30T22:14:12.553Z,57.00
2018-07-30T22:16:41.234Z,57.20
2018-07-30T22:19:10.038Z,57.30
2018-07-30T22:21:38.728Z,57.40
2018-07-30T22:24:07.696Z,57.50
2018-07-30T22:26:36.391Z,57.60
2018-07-30T22:29:05.156Z,57.70
2018-07-30T22:31:33.893Z,57.70
2018-07-30T22:34:05.448Z,57.80
2018-07-30T22:36:34.161Z,58.10
2018-07-30T22:41:33.209Z,59.10
2018-07-30T22:44:01.911Z,59.20
2018-07-30T22:46:30.701Z,59.30
2018-07-30T22:48:59.380Z,59.50
2018-07-30T22:51:28.829Z,59.40
2018-07-30T22:53:57.756Z,59.50
2018-07-30T22:56:26.490Z,59.80
2018-07-30T22:58:55.223Z,59.80
2018-07-30T23:01:23.908Z,60.20
2018-07-30T23:03:52.639Z,60.30
2018-07-30T23:06:21.398Z,60.40
2018-07-30T23:08:50.923Z,60.40
2018-07-30T23:11:19.572Z,60.50
2018-07-30T23:13:48.316Z,60.80
2018-07-30T23:16:19.865Z,61.50
2018-07-30T23:18:48.593Z,61.80
2018-07-30T23:21:18.469Z,62.30
2018-07-30T23:23:47.165Z,62.60
2018-07-30T23:26:16.133Z,63.50
2018-07-30T23:28:44.877Z,62.70
2018-07-30T23:31:13.612Z,62.70
2018-07-30T23:33:43.184Z,62.80
2018-07-30T23:36:11.971Z,62.80
2018-07-30T23:38:40.711Z,62.70
2018-07-30T23:41:09.417Z,62.80
2018-07-30T23:43:38.297Z,63.00
2018-07-30T23:46:06.963Z,63.20
2018-07-30T23:48:35.603Z,63.20
2018-07-30T23:51:04.382Z,63.20
2018-07-30T23:53:33.006Z,63.20
2018-07-30T23:56:01.739Z,63.10
2018-07-30T23:58:30.404Z,63.10
